Terminal Aerodrome Forecast
Issued by NWS Binghamton, NY

Home | Current Version | Previous Version | Text Only | Print | Product List | Glossary On
Versions: 1 2 3 4 5 6 7 8 9 10 11 12 13 14 15 16 17 18 19 20
000
FTUS41 KBGM 262341
TAFAVP
TAF
KAVP 262341Z 2700/2724 VRB03KT P6SM SCT035
     FM270600 00000KT P6SM OVC015
     FM271400 13005KT P6SM BKN025
     FM271600 14008KT P6SM BKN040
     FM271900 17010G18KT P6SM BKN050=

USA.gov is the U.S. government's official web portal to all federal, state and local government web resources and services.